sensor_id;sensor_type;location;lat;lon;timestamp;P1;durP1;ratioP1;P2;durP2;ratioP2
55067;SDS011;40965;52.368;9.712;2022-12-15T00:00:28;22.20;;;12.47;;
55067;SDS011;40965;52.368;9.712;2022-12-15T00:03:13;22.87;;;12.60;;
55067;SDS011;40965;52.368;9.712;2022-12-15T00:08:42;18.63;;;11.47;;
55067;SDS011;40965;52.368;9.712;2022-12-15T00:11:27;28.58;;;12.70;;
55067;SDS011;40965;52.368;9.712;2022-12-15T00:14:11;23.42;;;13.10;;
55067;SDS011;40965;52.368;9.712;2022-12-15T00:16:56;21.70;;;10.90;;
55067;SDS011;40965;52.368;9.712;2022-12-15T00:19:40;21.58;;;11.73;;
55067;SDS011;40965;52.368;9.712;2022-12-15T00:22:24;20.17;;;11.85;;
55067;SDS011;40965;52.368;9.712;2022-12-15T00:25:08;23.15;;;12.23;;
55067;SDS011;40965;52.368;9.712;2022-12-15T00:27:55;18.88;;;10.50;;
55067;SDS011;40965;52.368;9.712;2022-12-15T00:30:40;27.10;;;12.77;;
55067;SDS011;40965;52.368;9.712;2022-12-15T00:33:24;25.98;;;12.68;;
55067;SDS011;40965;52.368;9.712;2022-12-15T00:36:08;26.40;;;12.85;;
55067;SDS011;40965;52.368;9.712;2022-12-15T00:38:52;21.35;;;12.00;;
55067;SDS011;40965;52.368;9.712;2022-12-15T00:41:21;19.80;;;10.80;;
55067;SDS011;40965;52.368;9.712;2022-12-15T00:43:48;24.17;;;12.90;;
55067;SDS011;40965;52.368;9.712;2022-12-15T00:46:14;20.10;;;11.33;;
55067;SDS011;40965;52.368;9.712;2022-12-15T00:48:59;14.67;;;10.07;;
55067;SDS011;40965;52.368;9.712;2022-12-15T00:51:26;21.00;;;12.03;;
55067;SDS011;40965;52.368;9.712;2022-12-15T00:54:10;25.85;;;12.10;;
55067;SDS011;40965;52.368;9.712;2022-12-15T00:56:55;25.90;;;13.03;;
55067;SDS011;40965;52.368;9.712;2022-12-15T00:59:40;23.37;;;13.10;;
55067;SDS011;40965;52.368;9.712;2022-12-15T01:02:24;29.15;;;13.52;;
55067;SDS011;40965;52.368;9.712;2022-12-15T01:05:08;19.80;;;12.25;;
55067;SDS011;40965;52.368;9.712;2022-12-15T01:07:52;20.50;;;12.98;;
55067;SDS011;40965;52.368;9.712;2022-12-15T01:10:36;19.60;;;11.95;;
55067;SDS011;40965;52.368;9.712;2022-12-15T01:13:20;25.00;;;12.32;;
55067;SDS011;40965;52.368;9.712;2022-12-15T01:16:08;26.25;;;12.75;;
55067;SDS011;40965;52.368;9.712;2022-12-15T01:18:54;24.70;;;12.63;;
55067;SDS011;40965;52.368;9.712;2022-12-15T01:21:38;24.80;;;13.52;;
55067;SDS011;40965;52.368;9.712;2022-12-15T01:24:07;25.80;;;12.77;;
55067;SDS011;40965;52.368;9.712;2022-12-15T01:26:35;32.60;;;13.60;;
55067;SDS011;40965;52.368;9.712;2022-12-15T01:29:02;26.07;;;12.83;;
55067;SDS011;40965;52.368;9.712;2022-12-15T01:31:29;20.07;;;12.50;;
55067;SDS011;40965;52.368;9.712;2022-12-15T01:33:56;20.73;;;12.40;;
55067;SDS011;40965;52.368;9.712;2022-12-15T01:36:23;21.30;;;11.47;;
55067;SDS011;40965;52.368;9.712;2022-12-15T01:38:50;22.10;;;11.77;;
55067;SDS011;40965;52.368;9.712;2022-12-15T01:41:16;21.23;;;11.57;;
55067;SDS011;40965;52.368;9.712;2022-12-15T01:43:43;18.40;;;10.37;;
55067;SDS011;40965;52.368;9.712;2022-12-15T01:46:12;20.57;;;9.87;;
55067;SDS011;40965;52.368;9.712;2022-12-15T01:49:09;19.80;;;14.07;;
55067;SDS011;40965;52.368;9.712;2022-12-15T01:51:49;20.20;;;9.93;;
55067;SDS011;40965;52.368;9.712;2022-12-15T01:54:20;22.00;;;9.90;;
55067;SDS011;40965;52.368;9.712;2022-12-15T01:56:59;17.60;;;12.00;;
55067;SDS011;40965;52.368;9.712;2022-12-15T01:59:35;18.83;;;10.60;;
55067;SDS011;40965;52.368;9.712;2022-12-15T02:02:11;20.57;;;11.23;;
55067;SDS011;40965;52.368;9.712;2022-12-15T02:04:39;18.37;;;10.13;;
55067;SDS011;40965;52.368;9.712;2022-12-15T02:07:12;17.60;;;10.53;;
55067;SDS011;40965;52.368;9.712;2022-12-15T02:09:46;23.27;;;11.77;;
55067;SDS011;40965;52.368;9.712;2022-12-15T02:18:07;25.63;;;12.00;;
55067;SDS011;40965;52.368;9.712;2022-12-15T02:32:45;16.37;;;9.67;;
55067;SDS011;40965;52.368;9.712;2022-12-15T02:38:56;21.47;;;12.07;;
55067;SDS011;40965;52.368;9.712;2022-12-15T02:41:32;16.67;;;11.00;;
55067;SDS011;40965;52.368;9.712;2022-12-15T02:44:16;21.60;;;10.43;;
55067;SDS011;40965;52.368;9.712;2022-12-15T02:47:16;16.03;;;10.07;;
55067;SDS011;40965;52.368;9.712;2022-12-15T02:49:58;14.90;;;9.10;;
55067;SDS011;40965;52.368;9.712;2022-12-15T02:52:47;15.17;;;9.33;;
55067;SDS011;40965;52.368;9.712;2022-12-15T02:55:56;14.73;;;8.97;;
55067;SDS011;40965;52.368;9.712;2022-12-15T02:58:40;18.40;;;10.13;;
55067;SDS011;40965;52.368;9.712;2022-12-15T03:04:10;19.02;;;9.82;;
55067;SDS011;40965;52.368;9.712;2022-12-15T03:06:38;18.20;;;9.40;;
55067;SDS011;40965;52.368;9.712;2022-12-15T03:09:05;18.70;;;8.90;;
55067;SDS011;40965;52.368;9.712;2022-12-15T03:11:32;16.27;;;10.30;;
55067;SDS011;40965;52.368;9.712;2022-12-15T03:14:01;14.17;;;9.10;;
55067;SDS011;40965;52.368;9.712;2022-12-15T03:16:28;21.57;;;9.50;;
55067;SDS011;40965;52.368;9.712;2022-12-15T03:18:54;14.60;;;9.57;;
55067;SDS011;40965;52.368;9.712;2022-12-15T03:21:22;16.80;;;10.50;;
55067;SDS011;40965;52.368;9.712;2022-12-15T03:23:48;18.83;;;9.03;;
55067;SDS011;40965;52.368;9.712;2022-12-15T03:26:17;19.07;;;10.83;;
55067;SDS011;40965;52.368;9.712;2022-12-15T03:28:43;16.10;;;8.83;;
55067;SDS011;40965;52.368;9.712;2022-12-15T03:31:10;16.73;;;8.40;;
55067;SDS011;40965;52.368;9.712;2022-12-15T03:33:37;20.07;;;9.23;;
55067;SDS011;40965;52.368;9.712;2022-12-15T03:36:03;15.83;;;9.77;;
55067;SDS011;40965;52.368;9.712;2022-12-15T03:38:32;15.83;;;9.17;;
55067;SDS011;40965;52.368;9.712;2022-12-15T03:40:59;12.77;;;8.63;;
55067;SDS011;40965;52.368;9.712;2022-12-15T03:43:26;19.87;;;9.47;;
55067;SDS011;40965;52.368;9.712;2022-12-15T03:45:53;15.17;;;8.93;;
55067;SDS011;40965;52.368;9.712;2022-12-15T03:48:19;15.60;;;7.80;;
55067;SDS011;40965;52.368;9.712;2022-12-15T03:50:47;13.67;;;7.60;;
55067;SDS011;40965;52.368;9.712;2022-12-15T03:53:15;16.37;;;8.43;;
55067;SDS011;40965;52.368;9.712;2022-12-15T03:55:42;12.63;;;8.17;;
55067;SDS011;40965;52.368;9.712;2022-12-15T03:58:09;16.47;;;9.47;;
55067;SDS011;40965;52.368;9.712;2022-12-15T04:00:37;18.37;;;8.47;;
55067;SDS011;40965;52.368;9.712;2022-12-15T04:03:11;13.80;;;7.83;;
55067;SDS011;40965;52.368;9.712;2022-12-15T04:05:38;14.07;;;8.83;;
55067;SDS011;40965;52.368;9.712;2022-12-15T04:08:05;16.60;;;8.83;;
55067;SDS011;40965;52.368;9.712;2022-12-15T04:10:34;14.83;;;8.17;;
55067;SDS011;40965;52.368;9.712;2022-12-15T04:13:10;11.77;;;8.97;;
55067;SDS011;40965;52.368;9.712;2022-12-15T04:15:39;12.10;;;8.47;;
55067;SDS011;40965;52.368;9.712;2022-12-15T04:18:08;13.43;;;8.20;;
55067;SDS011;40965;52.368;9.712;2022-12-15T04:20:37;10.20;;;7.47;;
55067;SDS011;40965;52.368;9.712;2022-12-15T04:23:04;19.83;;;9.10;;
55067;SDS011;40965;52.368;9.712;2022-12-15T04:25:31;16.33;;;9.20;;
55067;SDS011;40965;52.368;9.712;2022-12-15T04:28:16;18.77;;;9.27;;
55067;SDS011;40965;52.368;9.712;2022-12-15T04:33:53;11.10;;;7.53;;
55067;SDS011;40965;52.368;9.712;2022-12-15T04:36:41;14.00;;;8.20;;
55067;SDS011;40965;52.368;9.712;2022-12-15T04:39:28;18.97;;;9.50;;
55067;SDS011;40965;52.368;9.712;2022-12-15T04:42:12;17.77;;;9.27;;
55067;SDS011;40965;52.368;9.712;2022-12-15T04:44:59;12.67;;;7.50;;
55067;SDS011;40965;52.368;9.712;2022-12-15T04:47:46;16.70;;;8.23;;
55067;SDS011;40965;52.368;9.712;2022-12-15T04:50:31;12.40;;;8.03;;
55067;SDS011;40965;52.368;9.712;2022-12-15T04:53:16;14.43;;;8.63;;
55067;SDS011;40965;52.368;9.712;2022-12-15T04:56:02;12.83;;;7.00;;
55067;SDS011;40965;52.368;9.712;2022-12-15T04:58:47;19.80;;;8.80;;
55067;SDS011;40965;52.368;9.712;2022-12-15T05:01:32;14.65;;;7.82;;
55067;SDS011;40965;52.368;9.712;2022-12-15T05:04:17;13.23;;;8.07;;
55067;SDS011;40965;52.368;9.712;2022-12-15T05:07:02;14.90;;;8.67;;
55067;SDS011;40965;52.368;9.712;2022-12-15T05:09:46;13.53;;;8.47;;
55067;SDS011;40965;52.368;9.712;2022-12-15T05:12:30;15.80;;;7.72;;
55067;SDS011;40965;52.368;9.712;2022-12-15T05:15:14;12.40;;;7.22;;
55067;SDS011;40965;52.368;9.712;2022-12-15T05:17:58;15.00;;;8.95;;
55067;SDS011;40965;52.368;9.712;2022-12-15T05:20:43;19.73;;;9.23;;
55067;SDS011;40965;52.368;9.712;2022-12-15T05:23:29;14.70;;;7.77;;
55067;SDS011;40965;52.368;9.712;2022-12-15T05:26:13;18.55;;;8.35;;
55067;SDS011;40965;52.368;9.712;2022-12-15T05:28:57;16.77;;;8.65;;
55067;SDS011;40965;52.368;9.712;2022-12-15T05:31:41;17.52;;;9.20;;
55067;SDS011;40965;52.368;9.712;2022-12-15T05:34:28;11.70;;;7.07;;
55067;SDS011;40965;52.368;9.712;2022-12-15T05:36:58;15.07;;;9.17;;
55067;SDS011;40965;52.368;9.712;2022-12-15T05:39:26;14.67;;;8.93;;
55067;SDS011;40965;52.368;9.712;2022-12-15T05:41:54;12.43;;;8.23;;
55067;SDS011;40965;52.368;9.712;2022-12-15T05:44:22;13.53;;;8.33;;
55067;SDS011;40965;52.368;9.712;2022-12-15T05:46:51;15.53;;;8.87;;
55067;SDS011;40965;52.368;9.712;2022-12-15T05:49:20;11.03;;;7.00;;
55067;SDS011;40965;52.368;9.712;2022-12-15T05:51:47;16.53;;;8.37;;
55067;SDS011;40965;52.368;9.712;2022-12-15T05:54:15;15.03;;;8.73;;
55067;SDS011;40965;52.368;9.712;2022-12-15T05:56:44;10.87;;;8.43;;
55067;SDS011;40965;52.368;9.712;2022-12-15T05:59:14;18.80;;;8.67;;
55067;SDS011;40965;52.368;9.712;2022-12-15T06:01:47;13.13;;;8.33;;
55067;SDS011;40965;52.368;9.712;2022-12-15T06:04:14;12.20;;;6.67;;
55067;SDS011;40965;52.368;9.712;2022-12-15T06:06:41;14.50;;;8.00;;
55067;SDS011;40965;52.368;9.712;2022-12-15T06:09:08;16.17;;;7.20;;
55067;SDS011;40965;52.368;9.712;2022-12-15T06:11:35;14.77;;;9.23;;
55067;SDS011;40965;52.368;9.712;2022-12-15T06:14:02;12.63;;;8.07;;
55067;SDS011;40965;52.368;9.712;2022-12-15T06:16:29;14.77;;;7.97;;
55067;SDS011;40965;52.368;9.712;2022-12-15T06:18:57;23.10;;;11.50;;
55067;SDS011;40965;52.368;9.712;2022-12-15T06:21:28;20.23;;;9.87;;
55067;SDS011;40965;52.368;9.712;2022-12-15T06:24:00;17.08;;;9.38;;
55067;SDS011;40965;52.368;9.712;2022-12-15T06:29:21;14.53;;;8.40;;
55067;SDS011;40965;52.368;9.712;2022-12-15T06:31:48;12.27;;;8.17;;
55067;SDS011;40965;52.368;9.712;2022-12-15T06:34:15;10.40;;;7.60;;
55067;SDS011;40965;52.368;9.712;2022-12-15T06:36:45;15.87;;;8.20;;
55067;SDS011;40965;52.368;9.712;2022-12-15T06:39:14;19.90;;;10.43;;
55067;SDS011;40965;52.368;9.712;2022-12-15T06:41:42;13.80;;;8.63;;
55067;SDS011;40965;52.368;9.712;2022-12-15T06:44:15;17.97;;;9.10;;
55067;SDS011;40965;52.368;9.712;2022-12-15T06:46:44;17.40;;;10.13;;
55067;SDS011;40965;52.368;9.712;2022-12-15T06:49:10;14.63;;;9.20;;
55067;SDS011;40965;52.368;9.712;2022-12-15T06:51:37;18.53;;;10.47;;
55067;SDS011;40965;52.368;9.712;2022-12-15T06:54:41;13.93;;;9.07;;
55067;SDS011;40965;52.368;9.712;2022-12-15T06:57:03;21.17;;;10.77;;
55067;SDS011;40965;52.368;9.712;2022-12-15T06:59:30;16.57;;;9.43;;
55067;SDS011;40965;52.368;9.712;2022-12-15T07:01:57;15.90;;;8.63;;
55067;SDS011;40965;52.368;9.712;2022-12-15T07:20:26;18.63;;;9.70;;
55067;SDS011;40965;52.368;9.712;2022-12-15T07:23:30;19.77;;;10.33;;
55067;SDS011;40965;52.368;9.712;2022-12-15T07:27:29;15.73;;;7.90;;
55067;SDS011;40965;52.368;9.712;2022-12-15T07:33:37;19.30;;;9.90;;
55067;SDS011;40965;52.368;9.712;2022-12-15T07:36:36;15.63;;;8.57;;
55067;SDS011;40965;52.368;9.712;2022-12-15T07:39:07;15.97;;;10.33;;
55067;SDS011;40965;52.368;9.712;2022-12-15T07:41:37;13.83;;;9.77;;
55067;SDS011;40965;52.368;9.712;2022-12-15T07:44:47;16.87;;;10.20;;
55067;SDS011;40965;52.368;9.712;2022-12-15T07:47:37;16.40;;;10.90;;
55067;SDS011;40965;52.368;9.712;2022-12-15T07:50:06;21.63;;;10.37;;
55067;SDS011;40965;52.368;9.712;2022-12-15T07:52:40;18.03;;;8.90;;
55067;SDS011;40965;52.368;9.712;2022-12-15T07:55:29;19.13;;;9.53;;
55067;SDS011;40965;52.368;9.712;2022-12-15T07:58:06;18.13;;;11.03;;
55067;SDS011;40965;52.368;9.712;2022-12-15T08:00:51;19.73;;;10.40;;
55067;SDS011;40965;52.368;9.712;2022-12-15T08:17:19;18.50;;;11.50;;
55067;SDS011;40965;52.368;9.712;2022-12-15T08:20:14;21.75;;;11.65;;
55067;SDS011;40965;52.368;9.712;2022-12-15T08:23:21;21.67;;;10.87;;
55067;SDS011;40965;52.368;9.712;2022-12-15T08:26:10;18.60;;;11.17;;
55067;SDS011;40965;52.368;9.712;2022-12-15T08:31:51;26.03;;;12.43;;
55067;SDS011;40965;52.368;9.712;2022-12-15T08:34:21;21.00;;;12.00;;
55067;SDS011;40965;52.368;9.712;2022-12-15T08:37:10;20.57;;;11.30;;
55067;SDS011;40965;52.368;9.712;2022-12-15T08:42:52;23.17;;;11.83;;
55067;SDS011;40965;52.368;9.712;2022-12-15T09:00:29;18.53;;;10.63;;
55067;SDS011;40965;52.368;9.712;2022-12-15T09:02:57;16.63;;;8.87;;
55067;SDS011;40965;52.368;9.712;2022-12-15T09:05:25;19.37;;;10.73;;
55067;SDS011;40965;52.368;9.712;2022-12-15T09:07:53;20.43;;;10.63;;
55067;SDS011;40965;52.368;9.712;2022-12-15T09:10:24;18.17;;;9.97;;
55067;SDS011;40965;52.368;9.712;2022-12-15T09:12:52;15.20;;;8.13;;
55067;SDS011;40965;52.368;9.712;2022-12-15T09:15:20;18.90;;;9.27;;
55067;SDS011;40965;52.368;9.712;2022-12-15T09:17:48;23.43;;;11.07;;
55067;SDS011;40965;52.368;9.712;2022-12-15T09:20:17;14.30;;;8.90;;
55067;SDS011;40965;52.368;9.712;2022-12-15T09:22:45;16.47;;;9.97;;
55067;SDS011;40965;52.368;9.712;2022-12-15T09:25:13;16.17;;;9.80;;
55067;SDS011;40965;52.368;9.712;2022-12-15T09:27:40;17.30;;;11.00;;
55067;SDS011;40965;52.368;9.712;2022-12-15T09:30:07;20.87;;;10.83;;
55067;SDS011;40965;52.368;9.712;2022-12-15T09:32:35;21.93;;;11.13;;
55067;SDS011;40965;52.368;9.712;2022-12-15T09:35:04;16.60;;;11.37;;
55067;SDS011;40965;52.368;9.712;2022-12-15T09:37:31;22.83;;;13.07;;
55067;SDS011;40965;52.368;9.712;2022-12-15T09:39:58;20.20;;;11.77;;
55067;SDS011;40965;52.368;9.712;2022-12-15T09:42:28;24.37;;;11.13;;
55067;SDS011;40965;52.368;9.712;2022-12-15T09:45:04;17.03;;;10.27;;
55067;SDS011;40965;52.368;9.712;2022-12-15T09:48:09;20.25;;;12.32;;
55067;SDS011;40965;52.368;9.712;2022-12-15T09:50:43;21.48;;;11.57;;
55067;SDS011;40965;52.368;9.712;2022-12-15T09:53:13;17.92;;;10.57;;
55067;SDS011;40965;52.368;9.712;2022-12-15T09:55:43;16.92;;;9.80;;
55067;SDS011;40965;52.368;9.712;2022-12-15T09:58:25;17.63;;;11.15;;
55067;SDS011;40965;52.368;9.712;2022-12-15T10:01:30;18.50;;;9.77;;
55067;SDS011;40965;52.368;9.712;2022-12-15T10:04:32;14.75;;;10.20;;
55067;SDS011;40965;52.368;9.712;2022-12-15T10:07:20;14.40;;;8.70;;
55067;SDS011;40965;52.368;9.712;2022-12-15T10:10:24;16.65;;;10.48;;
55067;SDS011;40965;52.368;9.712;2022-12-15T10:13:10;19.65;;;10.95;;
55067;SDS011;40965;52.368;9.712;2022-12-15T10:15:51;24.40;;;11.32;;
55067;SDS011;40965;52.368;9.712;2022-12-15T10:18:29;13.50;;;9.82;;
55067;SDS011;40965;52.368;9.712;2022-12-15T10:21:02;19.15;;;10.57;;
55067;SDS011;40965;52.368;9.712;2022-12-15T10:23:30;15.70;;;9.65;;
55067;SDS011;40965;52.368;9.712;2022-12-15T10:26:35;18.58;;;11.48;;
55067;SDS011;40965;52.368;9.712;2022-12-15T10:31:57;15.20;;;9.38;;
55067;SDS011;40965;52.368;9.712;2022-12-15T10:34:31;18.17;;;9.23;;
55067;SDS011;40965;52.368;9.712;2022-12-15T10:37:02;20.30;;;11.80;;
55067;SDS011;40965;52.368;9.712;2022-12-15T10:39:36;12.32;;;8.38;;
55067;SDS011;40965;52.368;9.712;2022-12-15T10:44:42;17.52;;;10.25;;
55067;SDS011;40965;52.368;9.712;2022-12-15T10:47:27;18.02;;;10.10;;
55067;SDS011;40965;52.368;9.712;2022-12-15T10:52:52;18.25;;;10.07;;
55067;SDS011;40965;52.368;9.712;2022-12-15T10:58:16;18.60;;;10.15;;
55067;SDS011;40965;52.368;9.712;2022-12-15T11:00:48;16.88;;;8.50;;
55067;SDS011;40965;52.368;9.712;2022-12-15T11:03:36;18.00;;;9.38;;
55067;SDS011;40965;52.368;9.712;2022-12-15T11:06:08;16.73;;;9.48;;
55067;SDS011;40965;52.368;9.712;2022-12-15T11:12:18;19.98;;;9.25;;
55067;SDS011;40965;52.368;9.712;2022-12-15T11:20:52;17.90;;;9.98;;
55067;SDS011;40965;52.368;9.712;2022-12-15T11:29:20;13.65;;;7.80;;
55067;SDS011;40965;52.368;9.712;2022-12-15T11:32:05;15.20;;;8.55;;
55067;SDS011;40965;52.368;9.712;2022-12-15T11:34:38;12.63;;;7.55;;
55067;SDS011;40965;52.368;9.712;2022-12-15T11:37:16;16.05;;;8.88;;
55067;SDS011;40965;52.368;9.712;2022-12-15T11:46:04;13.68;;;7.13;;
55067;SDS011;40965;52.368;9.712;2022-12-15T11:48:55;15.25;;;9.13;;
55067;SDS011;40965;52.368;9.712;2022-12-15T11:51:44;12.07;;;7.32;;
55067;SDS011;40965;52.368;9.712;2022-12-15T11:57:36;10.57;;;7.07;;
55067;SDS011;40965;52.368;9.712;2022-12-15T12:00:19;18.67;;;9.82;;
55067;SDS011;40965;52.368;9.712;2022-12-15T12:05:58;12.35;;;7.80;;
55067;SDS011;40965;52.368;9.712;2022-12-15T12:08:54;11.45;;;7.03;;
55067;SDS011;40965;52.368;9.712;2022-12-15T12:18:17;13.65;;;8.00;;
55067;SDS011;40965;52.368;9.712;2022-12-15T12:20:49;11.70;;;7.80;;
55067;SDS011;40965;52.368;9.712;2022-12-15T12:23:26;13.70;;;8.38;;
55067;SDS011;40965;52.368;9.712;2022-12-15T12:26:06;16.73;;;9.15;;
55067;SDS011;40965;52.368;9.712;2022-12-15T12:35:01;17.92;;;8.75;;
55067;SDS011;40965;52.368;9.712;2022-12-15T12:37:43;15.45;;;7.82;;
55067;SDS011;40965;52.368;9.712;2022-12-15T12:43:08;10.52;;;7.32;;
55067;SDS011;40965;52.368;9.712;2022-12-15T12:45:49;11.15;;;7.72;;
55067;SDS011;40965;52.368;9.712;2022-12-15T12:48:23;13.68;;;9.27;;
55067;SDS011;40965;52.368;9.712;2022-12-15T12:51:15;16.90;;;8.88;;
55067;SDS011;40965;52.368;9.712;2022-12-15T12:53:55;11.60;;;7.88;;
55067;SDS011;40965;52.368;9.712;2022-12-15T12:59:05;13.15;;;8.60;;
55067;SDS011;40965;52.368;9.712;2022-12-15T13:01:59;15.73;;;8.48;;
55067;SDS011;40965;52.368;9.712;2022-12-15T13:05:00;16.58;;;8.77;;
55067;SDS011;40965;52.368;9.712;2022-12-15T13:07:56;15.73;;;9.30;;
55067;SDS011;40965;52.368;9.712;2022-12-15T13:10:39;17.92;;;10.02;;
55067;SDS011;40965;52.368;9.712;2022-12-15T13:15:44;21.42;;;10.57;;
55067;SDS011;40965;52.368;9.712;2022-12-15T13:20:47;14.70;;;7.90;;
55067;SDS011;40965;52.368;9.712;2022-12-15T13:28:28;10.63;;;6.75;;
55067;SDS011;40965;52.368;9.712;2022-12-15T13:41:38;11.82;;;7.68;;
55067;SDS011;40965;52.368;9.712;2022-12-15T13:46:50;11.40;;;7.43;;
55067;SDS011;40965;52.368;9.712;2022-12-15T13:52:18;11.65;;;8.05;;
55067;SDS011;40965;52.368;9.712;2022-12-15T13:54:51;14.88;;;8.52;;
55067;SDS011;40965;52.368;9.712;2022-12-15T13:57:23;14.13;;;8.90;;
55067;SDS011;40965;52.368;9.712;2022-12-15T13:59:52;12.18;;;9.13;;
55067;SDS011;40965;52.368;9.712;2022-12-15T14:02:34;10.20;;;7.97;;
55067;SDS011;40965;52.368;9.712;2022-12-15T14:05:12;11.10;;;7.78;;
55067;SDS011;40965;52.368;9.712;2022-12-15T14:10:38;14.25;;;8.30;;
55067;SDS011;40965;52.368;9.712;2022-12-15T14:13:18;15.32;;;9.77;;
55067;SDS011;40965;52.368;9.712;2022-12-15T14:15:51;13.57;;;8.32;;
55067;SDS011;40965;52.368;9.712;2022-12-15T14:18:22;15.80;;;9.63;;
55067;SDS011;40965;52.368;9.712;2022-12-15T14:23:43;12.63;;;8.38;;
55067;SDS011;40965;52.368;9.712;2022-12-15T14:26:11;13.70;;;8.95;;
55067;SDS011;40965;52.368;9.712;2022-12-15T14:28:41;15.82;;;9.35;;
55067;SDS011;40965;52.368;9.712;2022-12-15T14:31:21;14.60;;;8.85;;
55067;SDS011;40965;52.368;9.712;2022-12-15T14:33:52;11.52;;;7.55;;
55067;SDS011;40965;52.368;9.712;2022-12-15T14:36:28;22.63;;;9.85;;
55067;SDS011;40965;52.368;9.712;2022-12-15T14:39:01;17.80;;;10.25;;
55067;SDS011;40965;52.368;9.712;2022-12-15T14:41:32;17.95;;;9.43;;
55067;SDS011;40965;52.368;9.712;2022-12-15T14:47:01;18.75;;;10.70;;
55067;SDS011;40965;52.368;9.712;2022-12-15T14:49:32;15.07;;;10.15;;
55067;SDS011;40965;52.368;9.712;2022-12-15T14:52:06;16.75;;;10.25;;
55067;SDS011;40965;52.368;9.712;2022-12-15T14:54:52;16.95;;;11.13;;
55067;SDS011;40965;52.368;9.712;2022-12-15T14:57:29;17.13;;;10.82;;
55067;SDS011;40965;52.368;9.712;2022-12-15T15:00:28;21.63;;;12.10;;
55067;SDS011;40965;52.368;9.712;2022-12-15T15:05:52;14.73;;;8.02;;
55067;SDS011;40965;52.368;9.712;2022-12-15T15:08:28;16.17;;;9.10;;
55067;SDS011;40965;52.368;9.712;2022-12-15T15:11:01;14.90;;;9.80;;
55067;SDS011;40965;52.368;9.712;2022-12-15T15:13:44;14.73;;;8.35;;
55067;SDS011;40965;52.368;9.712;2022-12-15T15:16:13;20.48;;;11.07;;
55067;SDS011;40965;52.368;9.712;2022-12-15T15:18:43;16.35;;;10.48;;
55067;SDS011;40965;52.368;9.712;2022-12-15T15:21:16;11.95;;;8.65;;
55067;SDS011;40965;52.368;9.712;2022-12-15T15:24:00;19.08;;;11.05;;
55067;SDS011;40965;52.368;9.712;2022-12-15T15:26:29;21.08;;;12.60;;
55067;SDS011;40965;52.368;9.712;2022-12-15T15:28:56;20.30;;;11.07;;
55067;SDS011;40965;52.368;9.712;2022-12-15T15:33:51;18.92;;;10.80;;
55067;SDS011;40965;52.368;9.712;2022-12-15T15:36:20;22.48;;;10.57;;
55067;SDS011;40965;52.368;9.712;2022-12-15T15:38:49;17.27;;;9.73;;
55067;SDS011;40965;52.368;9.712;2022-12-15T15:41:17;20.70;;;10.73;;
55067;SDS011;40965;52.368;9.712;2022-12-15T15:43:54;17.58;;;9.23;;
55067;SDS011;40965;52.368;9.712;2022-12-15T15:46:24;15.77;;;10.18;;
55067;SDS011;40965;52.368;9.712;2022-12-15T15:51:30;11.63;;;8.65;;
55067;SDS011;40965;52.368;9.712;2022-12-15T15:54:03;27.25;;;12.45;;
55067;SDS011;40965;52.368;9.712;2022-12-15T15:56:33;18.10;;;9.13;;
55067;SDS011;40965;52.368;9.712;2022-12-15T15:59:04;18.52;;;10.43;;
55067;SDS011;40965;52.368;9.712;2022-12-15T16:01:37;14.55;;;8.85;;
55067;SDS011;40965;52.368;9.712;2022-12-15T16:04:03;20.13;;;10.90;;
55067;SDS011;40965;52.368;9.712;2022-12-15T16:06:31;13.20;;;9.52;;
55067;SDS011;40965;52.368;9.712;2022-12-15T16:08:57;23.70;;;11.55;;
55067;SDS011;40965;52.368;9.712;2022-12-15T16:11:25;13.77;;;9.13;;
55067;SDS011;40965;52.368;9.712;2022-12-15T16:13:58;22.17;;;11.18;;
55067;SDS011;40965;52.368;9.712;2022-12-15T16:16:27;19.83;;;10.52;;
55067;SDS011;40965;52.368;9.712;2022-12-15T16:18:57;17.50;;;12.63;;
55067;SDS011;40965;52.368;9.712;2022-12-15T16:21:26;27.77;;;10.82;;
55067;SDS011;40965;52.368;9.712;2022-12-15T16:23:53;18.00;;;10.52;;
55067;SDS011;40965;52.368;9.712;2022-12-15T16:26:29;22.00;;;10.73;;
55067;SDS011;40965;52.368;9.712;2022-12-15T16:28:57;21.73;;;11.32;;
55067;SDS011;40965;52.368;9.712;2022-12-15T16:31:31;17.70;;;12.15;;
55067;SDS011;40965;52.368;9.712;2022-12-15T16:34:02;18.05;;;10.38;;
55067;SDS011;40965;52.368;9.712;2022-12-15T16:36:30;23.35;;;12.13;;
55067;SDS011;40965;52.368;9.712;2022-12-15T16:38:57;20.52;;;12.35;;
55067;SDS011;40965;52.368;9.712;2022-12-15T16:41:24;13.35;;;8.77;;
55067;SDS011;40965;52.368;9.712;2022-12-15T16:43:51;19.05;;;11.02;;
55067;SDS011;40965;52.368;9.712;2022-12-15T16:46:18;17.65;;;11.50;;
55067;SDS011;40965;52.368;9.712;2022-12-15T16:48:45;21.70;;;10.40;;
55067;SDS011;40965;52.368;9.712;2022-12-15T16:54:05;21.15;;;12.60;;
55067;SDS011;40965;52.368;9.712;2022-12-15T16:56:32;21.60;;;11.85;;
55067;SDS011;40965;52.368;9.712;2022-12-15T16:59:00;20.63;;;11.38;;
55067;SDS011;40965;52.368;9.712;2022-12-15T17:01:26;18.45;;;11.45;;
55067;SDS011;40965;52.368;9.712;2022-12-15T17:03:53;19.92;;;12.95;;
55067;SDS011;40965;52.368;9.712;2022-12-15T17:06:19;24.90;;;12.70;;
55067;SDS011;40965;52.368;9.712;2022-12-15T17:08:47;17.60;;;12.57;;
55067;SDS011;40965;52.368;9.712;2022-12-15T17:11:18;20.45;;;13.40;;
55067;SDS011;40965;52.368;9.712;2022-12-15T17:13:52;18.33;;;12.30;;
55067;SDS011;40965;52.368;9.712;2022-12-15T17:16:22;22.13;;;12.60;;
55067;SDS011;40965;52.368;9.712;2022-12-15T17:18:50;30.88;;;13.13;;
55067;SDS011;40965;52.368;9.712;2022-12-15T17:24:17;20.95;;;10.18;;
55067;SDS011;40965;52.368;9.712;2022-12-15T17:26:46;22.02;;;11.25;;
55067;SDS011;40965;52.368;9.712;2022-12-15T17:29:19;17.45;;;10.85;;
55067;SDS011;40965;52.368;9.712;2022-12-15T17:31:49;21.13;;;12.20;;
55067;SDS011;40965;52.368;9.712;2022-12-15T17:34:26;23.50;;;13.40;;
55067;SDS011;40965;52.368;9.712;2022-12-15T17:36:56;20.10;;;11.07;;
55067;SDS011;40965;52.368;9.712;2022-12-15T17:39:25;24.35;;;11.07;;
55067;SDS011;40965;52.368;9.712;2022-12-15T17:41:53;19.90;;;12.15;;
55067;SDS011;40965;52.368;9.712;2022-12-15T17:44:20;22.83;;;12.85;;
55067;SDS011;40965;52.368;9.712;2022-12-15T17:46:49;22.20;;;10.35;;
55067;SDS011;40965;52.368;9.712;2022-12-15T17:49:18;21.38;;;10.45;;
55067;SDS011;40965;52.368;9.712;2022-12-15T17:51:46;19.55;;;11.75;;
55067;SDS011;40965;52.368;9.712;2022-12-15T17:54:14;20.05;;;12.98;;
55067;SDS011;40965;52.368;9.712;2022-12-15T17:56:44;17.98;;;10.90;;
55067;SDS011;40965;52.368;9.712;2022-12-15T17:59:15;23.90;;;11.63;;
55067;SDS011;40965;52.368;9.712;2022-12-15T18:01:47;31.53;;;13.47;;
55067;SDS011;40965;52.368;9.712;2022-12-15T18:04:13;23.63;;;13.15;;
55067;SDS011;40965;52.368;9.712;2022-12-15T18:06:41;19.65;;;12.20;;
55067;SDS011;40965;52.368;9.712;2022-12-15T18:09:16;21.45;;;13.07;;
55067;SDS011;40965;52.368;9.712;2022-12-15T18:11:45;19.70;;;12.55;;
55067;SDS011;40965;52.368;9.712;2022-12-15T18:14:13;19.95;;;12.07;;
55067;SDS011;40965;52.368;9.712;2022-12-15T18:16:43;17.50;;;11.35;;
55067;SDS011;40965;52.368;9.712;2022-12-15T18:19:11;22.17;;;13.70;;
55067;SDS011;40965;52.368;9.712;2022-12-15T18:21:38;20.33;;;12.48;;
55067;SDS011;40965;52.368;9.712;2022-12-15T18:24:10;18.65;;;12.13;;
55067;SDS011;40965;52.368;9.712;2022-12-15T18:26:41;21.40;;;12.02;;
55067;SDS011;40965;52.368;9.712;2022-12-15T18:29:11;20.40;;;12.10;;